createdAt,value
2022-08-24T00:02:02.218Z,13.60
2022-08-24T00:04:32.291Z,14.50
2022-08-24T00:07:01.403Z,13.30
2022-08-24T00:09:30.487Z,13.40
2022-08-24T00:11:59.354Z,13.53
2022-08-24T00:14:28.106Z,13.63
2022-08-24T00:16:58.025Z,13.60
2022-08-24T00:19:27.170Z,12.93
2022-08-24T00:21:56.207Z,13.50
2022-08-24T00:24:24.751Z,13.10
2022-08-24T00:26:54.047Z,12.70
2022-08-24T00:29:23.723Z,11.50
2022-08-24T00:31:52.443Z,11.37
2022-08-24T00:34:22.461Z,10.97
2022-08-24T00:36:51.179Z,11.30
2022-08-24T00:39:20.150Z,11.53
2022-08-24T00:41:51.255Z,11.87
2022-08-24T00:44:21.791Z,10.97
2022-08-24T00:46:55.569Z,11.60
2022-08-24T00:49:34.879Z,11.73
2022-08-24T00:52:11.062Z,11.63
2022-08-24T00:54:46.541Z,12.07
2022-08-24T00:57:18.745Z,12.03
2022-08-24T00:59:52.316Z,12.60
2022-08-24T01:02:24.897Z,11.20
2022-08-24T01:04:57.780Z,11.70
2022-08-24T01:07:28.612Z,12.47
2022-08-24T01:10:00.324Z,11.93
2022-08-24T01:12:30.609Z,12.60
2022-08-24T01:15:02.021Z,12.23
2022-08-24T01:17:48.044Z,11.77
2022-08-24T01:20:20.864Z,11.90
2022-08-24T01:22:57.779Z,11.80
2022-08-24T01:25:31.155Z,12.40
2022-08-24T01:28:05.579Z,12.27
2022-08-24T01:30:36.848Z,12.03
2022-08-24T01:33:08.653Z,11.80
2022-08-24T01:35:39.520Z,11.97
2022-08-24T01:38:12.762Z,11.00
2022-08-24T01:40:47.865Z,10.80
2022-08-24T01:43:17.708Z,11.70
2022-08-24T01:45:46.866Z,10.73
2022-08-24T01:48:22.729Z,10.30
2022-08-24T01:50:53.800Z,11.63
2022-08-24T01:53:24.139Z,11.77
2022-08-24T01:55:54.477Z,13.10
2022-08-24T01:58:24.676Z,13.50
2022-08-24T02:00:53.965Z,12.20
2022-08-24T02:03:27.882Z,11.63
2022-08-24T02:05:59.672Z,11.73
2022-08-24T02:08:29.279Z,11.63
2022-08-24T02:10:59.189Z,11.60
2022-08-24T02:13:28.717Z,11.20
2022-08-24T02:15:58.227Z,11.30
2022-08-24T02:18:26.908Z,11.70
2022-08-24T02:20:55.779Z,11.57
2022-08-24T02:23:24.339Z,11.57
2022-08-24T02:25:52.950Z,11.23
2022-08-24T02:28:23.001Z,11.73
2022-08-24T02:30:53.634Z,11.53
2022-08-24T02:33:23.909Z,11.37
2022-08-24T02:35:54.469Z,12.60
2022-08-24T02:38:23.552Z,11.87
2022-08-24T02:40:52.100Z,12.33
2022-08-24T02:43:22.058Z,12.47
2022-08-24T02:45:50.704Z,11.50
2022-08-24T02:48:21.321Z,12.53
2022-08-24T02:50:52.399Z,12.43
2022-08-24T02:53:23.247Z,12.20
2022-08-24T02:55:52.468Z,12.20
2022-08-24T02:58:22.304Z,12.50
2022-08-24T03:00:51.299Z,12.20
2022-08-24T03:03:22.250Z,12.37
2022-08-24T03:05:50.978Z,11.43
2022-08-24T03:08:23.527Z,11.30
2022-08-24T03:10:52.853Z,10.97
2022-08-24T03:13:23.040Z,11.60
2022-08-24T03:15:52.222Z,12.20
2022-08-24T03:18:24.655Z,13.50
2022-08-24T03:20:54.664Z,13.70
2022-08-24T03:23:23.631Z,12.83
2022-08-24T03:25:53.024Z,11.50
2022-08-24T03:28:24.870Z,10.53
2022-08-24T03:30:53.761Z,12.07
2022-08-24T03:33:23.187Z,12.00
2022-08-24T03:35:51.858Z,11.57
2022-08-24T03:38:22.840Z,11.40
2022-08-24T03:40:51.718Z,10.43
2022-08-24T03:43:37.570Z,10.90
2022-08-24T03:46:09.543Z,11.27
2022-08-24T03:48:41.032Z,11.20
2022-08-24T03:51:13.264Z,11.50
2022-08-24T03:53:42.989Z,10.90
2022-08-24T03:56:13.517Z,11.23
2022-08-24T03:58:42.882Z,10.57
2022-08-24T04:01:13.115Z,10.80
2022-08-24T04:03:44.100Z,10.20
2022-08-24T04:06:16.048Z,10.00
2022-08-24T04:08:46.445Z,10.83
2022-08-24T04:11:17.960Z,10.93
2022-08-24T04:13:48.209Z,10.00
2022-08-24T04:16:21.542Z,10.63
2022-08-24T04:18:57.619Z,11.43
2022-08-24T04:21:28.202Z,10.43
2022-08-24T04:23:57.319Z,10.47
2022-08-24T04:26:45.190Z,9.83
2022-08-24T04:29:20.469Z,10.80
2022-08-24T04:31:56.433Z,9.43
2022-08-24T04:34:25.351Z,10.00
2022-08-24T04:36:53.859Z,9.03
2022-08-24T04:39:22.399Z,9.33
2022-08-24T04:41:57.261Z,8.93
2022-08-24T04:44:33.801Z,8.67
2022-08-24T04:47:04.538Z,8.00
2022-08-24T04:49:33.581Z,9.30
2022-08-24T04:52:02.411Z,8.43
2022-08-24T04:54:33.285Z,8.67
2022-08-24T04:57:15.868Z,8.80
2022-08-24T04:59:47.563Z,8.20
2022-08-24T05:02:17.916Z,8.23
2022-08-24T05:04:49.751Z,9.00
2022-08-24T05:07:19.798Z,9.63
2022-08-24T05:09:48.901Z,9.07
2022-08-24T05:12:21.500Z,9.10
2022-08-24T05:15:01.990Z,8.67
2022-08-24T05:17:36.892Z,8.53
2022-08-24T05:20:06.680Z,7.53
2022-08-24T05:22:35.231Z,7.37
2022-08-24T05:25:04.479Z,6.60
2022-08-24T05:27:34.570Z,7.33
2022-08-24T05:30:03.559Z,8.00
2022-08-24T05:32:32.208Z,7.73
2022-08-24T05:35:04.978Z,8.00
2022-08-24T05:37:36.237Z,7.30
2022-08-24T05:40:17.072Z,7.57
2022-08-24T05:42:49.647Z,7.80
2022-08-24T05:45:18.615Z,7.23
2022-08-24T05:47:47.111Z,6.93
2022-08-24T05:50:55.959Z,7.20
2022-08-24T05:53:27.119Z,7.70
2022-08-24T05:55:56.780Z,6.00
2022-08-24T05:58:31.168Z,5.37
2022-08-24T06:01:08.391Z,6.83
2022-08-24T06:03:37.128Z,6.53
2022-08-24T06:06:10.268Z,6.53
2022-08-24T06:08:41.804Z,6.47
2022-08-24T06:11:13.154Z,6.27
2022-08-24T06:13:41.719Z,6.40
2022-08-24T06:16:22.524Z,6.30
2022-08-24T06:18:53.990Z,6.50
2022-08-24T06:21:28.395Z,7.10
2022-08-24T06:23:59.279Z,7.10
2022-08-24T06:26:49.118Z,7.70
2022-08-24T06:29:20.409Z,7.00
2022-08-24T06:31:54.621Z,8.07
2022-08-24T06:34:26.302Z,7.50
2022-08-24T06:36:56.850Z,7.97
2022-08-24T06:39:27.801Z,6.57
2022-08-24T06:41:59.378Z,6.50
2022-08-24T06:44:32.668Z,8.03
2022-08-24T06:47:22.162Z,7.13
2022-08-24T06:50:00.023Z,7.90
2022-08-24T06:52:31.407Z,9.25
2022-08-24T06:54:59.906Z,8.20
2022-08-24T06:57:28.810Z,7.85
2022-08-24T06:59:57.506Z,8.02
2022-08-24T07:02:26.078Z,8.43
2022-08-24T07:04:55.237Z,8.25
2022-08-24T07:07:43.436Z,7.70
2022-08-24T07:10:12.518Z,7.90
2022-08-24T07:12:41.013Z,7.65
2022-08-24T07:15:16.076Z,7.78
2022-08-24T07:17:47.101Z,9.18
2022-08-24T07:20:17.589Z,9.02
2022-08-24T07:23:07.309Z,9.65
2022-08-24T07:25:36.730Z,9.32
2022-08-24T07:28:09.945Z,9.48
2022-08-24T07:30:41.364Z,9.32
2022-08-24T07:33:11.355Z,9.65
2022-08-24T07:35:41.070Z,10.70
2022-08-24T07:38:14.448Z,9.98
2022-08-24T07:41:09.243Z,9.02
2022-08-24T07:43:36.409Z,10.10
2022-08-24T07:46:10.320Z,9.68
2022-08-24T07:48:39.090Z,10.48
2022-08-24T07:51:09.840Z,10.20
2022-08-24T07:53:53.019Z,12.40
2022-08-24T07:56:24.580Z,11.38
2022-08-24T07:58:54.466Z,11.18
2022-08-24T08:01:24.182Z,10.15
2022-08-24T08:03:54.002Z,10.40
2022-08-24T08:06:23.631Z,10.88
2022-08-24T08:08:58.992Z,10.52
2022-08-24T08:11:27.689Z,11.02
2022-08-24T08:13:56.236Z,11.07
2022-08-24T08:16:26.454Z,12.38
2022-08-24T08:19:11.015Z,11.35
2022-08-24T08:22:01.978Z,11.00
2022-08-24T08:24:34.525Z,11.02
2022-08-24T08:27:05.386Z,11.35
2022-08-24T08:29:41.539Z,10.98
2022-08-24T08:32:12.154Z,12.07
2022-08-24T08:34:40.781Z,12.25
2022-08-24T08:37:09.642Z,12.73
2022-08-24T08:39:40.645Z,12.30
2022-08-24T08:42:35.260Z,11.07
2022-08-24T08:45:22.929Z,14.00
2022-08-24T08:48:26.146Z,12.18
2022-08-24T08:51:24.427Z,11.93
2022-08-24T08:54:20.223Z,13.18
2022-08-24T08:57:12.252Z,12.80
2022-08-24T09:00:05.036Z,13.02
2022-08-24T09:03:14.060Z,13.63
2022-08-24T09:06:23.615Z,13.80
2022-08-24T09:09:11.065Z,14.80
2022-08-24T09:11:53.086Z,14.88
2022-08-24T09:14:54.527Z,14.45
2022-08-24T09:17:37.567Z,16.17
2022-08-24T09:20:20.701Z,15.82
2022-08-24T09:22:49.747Z,13.63
2022-08-24T09:25:26.688Z,14.50
2022-08-24T09:28:25.009Z,13.65
2022-08-24T09:31:15.023Z,14.20
2022-08-24T09:33:51.739Z,12.95
2022-08-24T09:36:29.338Z,13.00
2022-08-24T09:39:08.001Z,13.90
2022-08-24T09:42:12.263Z,11.90
2022-08-24T09:45:15.308Z,10.73
2022-08-24T09:48:15.997Z,10.15
2022-08-24T09:51:46.478Z,11.32
2022-08-24T09:54:46.855Z,11.93
2022-08-24T09:57:44.177Z,11.30
2022-08-24T10:00:22.950Z,10.07
2022-08-24T10:03:02.819Z,9.43
2022-08-24T10:05:57.168Z,9.25
2022-08-24T10:08:38.816Z,10.95
2022-08-24T10:11:17.380Z,8.88
2022-08-24T10:14:01.290Z,11.30
2022-08-24T10:16:45.759Z,10.68
2022-08-24T10:19:32.106Z,10.95
2022-08-24T10:22:09.386Z,11.23
2022-08-24T10:25:01.892Z,10.30
2022-08-24T10:27:47.829Z,10.07
2022-08-24T10:30:38.937Z,11.02
2022-08-24T10:33:19.751Z,9.93
2022-08-24T10:36:08.520Z,10.40
2022-08-24T10:39:06.585Z,9.80
2022-08-24T10:42:10.578Z,11.05
2022-08-24T10:44:49.856Z,10.20
2022-08-24T10:47:23.512Z,11.13
2022-08-24T10:50:21.009Z,11.48
2022-08-24T10:53:22.444Z,10.73
2022-08-24T10:56:01.186Z,10.30
2022-08-24T10:58:49.003Z,12.30
2022-08-24T11:01:22.480Z,11.88
2022-08-24T11:03:55.019Z,10.27
2022-08-24T11:06:25.975Z,11.65
2022-08-24T11:08:58.735Z,10.82
2022-08-24T11:11:33.984Z,10.30
2022-08-24T11:14:09.482Z,11.18
2022-08-24T11:16:41.501Z,10.20
2022-08-24T11:19:14.218Z,11.68
2022-08-24T11:21:52.599Z,11.82
2022-08-24T11:24:40.195Z,11.35
2022-08-24T11:27:19.678Z,12.18
2022-08-24T11:30:11.762Z,11.55
2022-08-24T11:32:44.151Z,11.73
2022-08-24T11:35:27.165Z,11.50
2022-08-24T11:37:58.037Z,11.43
2022-08-24T11:40:30.502Z,13.95
2022-08-24T11:43:12.959Z,16.98
2022-08-24T11:45:51.297Z,20.92
2022-08-24T11:48:32.739Z,17.50
2022-08-24T11:51:06.954Z,13.88
2022-08-24T11:53:44.782Z,14.10
2022-08-24T11:56:21.482Z,14.15
2022-08-24T11:59:00.441Z,12.55
2022-08-24T12:01:44.704Z,13.23
2022-08-24T12:04:47.568Z,12.48
2022-08-24T12:07:27.754Z,12.15
2022-08-24T12:10:08.216Z,12.27
2022-08-24T12:12:43.641Z,11.45
2022-08-24T12:15:18.139Z,12.07
2022-08-24T12:17:57.242Z,12.15
2022-08-24T12:20:33.220Z,12.35
2022-08-24T12:23:08.567Z,11.52
2022-08-24T12:25:55.789Z,11.20
2022-08-24T12:28:29.050Z,11.25
2022-08-24T12:31:03.442Z,11.55
2022-08-24T12:33:37.680Z,11.02
2022-08-24T12:36:16.389Z,11.20
2022-08-24T12:38:49.767Z,11.27
2022-08-24T12:41:25.327Z,12.00
2022-08-24T12:43:57.549Z,10.77
2022-08-24T12:46:27.534Z,13.23
2022-08-24T12:49:02.052Z,11.48
2022-08-24T12:51:50.568Z,12.38
2022-08-24T12:54:38.274Z,12.57
2022-08-24T12:57:15.498Z,13.25
2022-08-24T12:59:47.878Z,13.23
2022-08-24T13:02:36.832Z,12.52
2022-08-24T13:05:17.416Z,12.73
2022-08-24T13:07:48.755Z,11.63
2022-08-24T13:10:39.762Z,13.20
2022-08-24T13:13:21.453Z,13.35
2022-08-24T13:16:08.156Z,12.05
2022-08-24T13:18:53.501Z,12.25
2022-08-24T13:21:48.749Z,12.70
2022-08-24T13:25:00.591Z,12.65
2022-08-24T13:27:47.698Z,12.27
2022-08-24T13:31:00.766Z,12.80
2022-08-24T13:33:35.304Z,12.02
2022-08-24T13:36:08.420Z,12.27
2022-08-24T13:39:03.643Z,12.80
2022-08-24T13:42:00.623Z,13.52
2022-08-24T13:44:42.638Z,12.95
2022-08-24T13:47:17.994Z,12.80
2022-08-24T13:50:02.155Z,12.32
2022-08-24T13:52:45.078Z,12.55
2022-08-24T13:55:32.985Z,13.25
2022-08-24T13:58:26.907Z,13.82
2022-08-24T14:01:01.924Z,14.07
2022-08-24T14:04:00.018Z,13.23
2022-08-24T14:06:36.285Z,14.45
2022-08-24T14:09:23.076Z,13.68
2022-08-24T14:12:23.347Z,14.77
2022-08-24T14:15:03.878Z,14.05
2022-08-24T14:17:55.793Z,13.38
2022-08-24T14:20:45.078Z,13.90
2022-08-24T14:23:25.549Z,13.68
2022-08-24T14:26:32.944Z,13.45
2022-08-24T14:29:31.998Z,15.15
2022-08-24T14:32:36.134Z,13.93
2022-08-24T14:35:40.645Z,13.68
2022-08-24T14:38:23.661Z,13.57
2022-08-24T14:41:02.688Z,12.18
2022-08-24T14:43:46.619Z,13.55
2022-08-24T14:46:24.612Z,12.60
2022-08-24T14:49:09.069Z,11.63
2022-08-24T14:51:54.620Z,13.07
2022-08-24T14:54:32.706Z,14.13
2022-08-24T14:57:14.926Z,13.73
2022-08-24T14:59:55.283Z,13.90
2022-08-24T15:02:59.021Z,14.30
2022-08-24T15:05:41.150Z,13.10
2022-08-24T15:08:12.349Z,13.98
2022-08-24T15:10:49.410Z,13.27
2022-08-24T15:13:29.165Z,12.63
2022-08-24T15:16:05.057Z,14.02
2022-08-24T15:18:43.544Z,13.48
2022-08-24T15:21:25.258Z,13.85
2022-08-24T15:24:13.936Z,13.18
2022-08-24T15:27:07.609Z,14.65
2022-08-24T15:29:47.174Z,14.88
2022-08-24T15:32:15.878Z,13.80
2022-08-24T15:34:48.876Z,15.73
2022-08-24T15:37:28.026Z,16.30
2022-08-24T15:39:56.535Z,16.95
2022-08-24T15:42:25.731Z,16.70
2022-08-24T15:44:54.622Z,27.60
2022-08-24T15:47:30.333Z,27.77
2022-08-24T15:50:02.609Z,26.70
2022-08-24T15:52:48.134Z,25.23
2022-08-24T15:55:31.417Z,25.60
2022-08-24T15:58:16.832Z,27.80
2022-08-24T16:01:03.002Z,27.87
2022-08-24T16:03:48.639Z,27.50
2022-08-24T16:06:45.151Z,27.27
2022-08-24T16:09:35.996Z,25.83
2022-08-24T16:12:07.944Z,26.27
2022-08-24T16:14:40.079Z,24.63
2022-08-24T16:17:38.948Z,25.07
2022-08-24T16:20:12.790Z,23.97
2022-08-24T16:22:58.507Z,23.07
2022-08-24T16:25:32.320Z,24.03
2022-08-24T16:28:07.819Z,23.60
2022-08-24T16:30:47.884Z,23.40
2022-08-24T16:33:43.149Z,23.43
2022-08-24T16:36:15.511Z,23.20
2022-08-24T16:38:49.459Z,22.17
2022-08-24T16:41:20.435Z,21.70
2022-08-24T16:43:49.381Z,22.90
2022-08-24T16:46:22.268Z,22.17
2022-08-24T16:48:54.062Z,22.10
2022-08-24T16:51:24.435Z,21.47
2022-08-24T16:53:54.627Z,21.87
2022-08-24T16:56:23.724Z,21.33
2022-08-24T16:58:52.676Z,21.77
2022-08-24T17:01:21.400Z,21.13
2022-08-24T17:03:49.982Z,21.60
2022-08-24T17:06:19.534Z,21.37
2022-08-24T17:08:48.700Z,19.50
2022-08-24T17:11:19.142Z,20.20
2022-08-24T17:13:50.143Z,20.57
2022-08-24T17:16:20.440Z,20.07
2022-08-24T17:18:49.374Z,20.37
2022-08-24T17:21:18.289Z,20.10
2022-08-24T17:23:47.039Z,21.43
2022-08-24T17:26:21.862Z,20.43
2022-08-24T17:28:54.496Z,19.77
2022-08-24T17:31:25.419Z,19.37
2022-08-24T17:33:54.528Z,18.40
2022-08-24T17:36:24.825Z,18.40
2022-08-24T17:38:56.377Z,18.87
2022-08-24T17:41:26.256Z,17.77
2022-08-24T17:43:57.213Z,17.93
2022-08-24T17:46:26.487Z,17.20
2022-08-24T17:48:55.407Z,17.73
2022-08-24T17:51:23.912Z,16.80
2022-08-24T17:53:52.719Z,15.87
2022-08-24T17:56:21.589Z,16.67
2022-08-24T17:59:07.512Z,15.53
2022-08-24T18:01:38.436Z,16.33
2022-08-24T18:04:06.950Z,15.73
2022-08-24T18:06:35.494Z,16.13
2022-08-24T18:09:08.141Z,16.90
2022-08-24T18:11:36.679Z,15.37
2022-08-24T18:14:05.464Z,15.37
2022-08-24T18:16:34.312Z,16.13
2022-08-24T18:19:04.269Z,16.27
2022-08-24T18:21:33.166Z,15.87
2022-08-24T18:24:01.827Z,15.17
2022-08-24T18:26:32.009Z,14.93
2022-08-24T18:29:11.820Z,15.60
2022-08-24T18:31:43.391Z,15.20
2022-08-24T18:34:17.985Z,16.40
2022-08-24T18:36:47.077Z,15.80
2022-08-24T18:39:16.216Z,15.47
2022-08-24T18:41:49.212Z,16.00
2022-08-24T18:44:20.783Z,15.07
2022-08-24T18:46:50.305Z,14.63
2022-08-24T18:49:21.745Z,15.40
2022-08-24T18:51:51.344Z,15.50
2022-08-24T18:54:22.962Z,15.40
2022-08-24T18:56:51.908Z,14.80
2022-08-24T18:59:22.716Z,15.83
2022-08-24T19:02:10.123Z,15.20
2022-08-24T19:04:45.567Z,15.07
2022-08-24T19:07:14.815Z,14.50
2022-08-24T19:09:43.728Z,14.93
2022-08-24T19:12:12.986Z,14.10
2022-08-24T19:14:46.245Z,14.20
2022-08-24T19:17:15.595Z,14.83
2022-08-24T19:19:46.764Z,14.40
2022-08-24T19:22:16.790Z,14.43
2022-08-24T19:24:46.764Z,14.63
2022-08-24T19:27:15.982Z,14.30
2022-08-24T19:29:55.444Z,12.73
2022-08-24T19:32:26.895Z,13.50
2022-08-24T19:34:58.248Z,13.50
2022-08-24T19:37:27.512Z,13.10
2022-08-24T19:39:57.805Z,13.13
2022-08-24T19:42:28.535Z,13.20
2022-08-24T19:45:16.660Z,13.47
2022-08-24T19:47:45.646Z,12.70
2022-08-24T19:50:20.349Z,14.23
2022-08-24T19:52:50.547Z,14.00
2022-08-24T19:55:19.515Z,14.63
2022-08-24T19:57:51.259Z,13.90
2022-08-24T20:00:30.835Z,13.30
2022-08-24T20:03:01.000Z,13.20
2022-08-24T20:05:31.414Z,13.20
2022-08-24T20:08:01.819Z,13.80
2022-08-24T20:10:32.555Z,14.50
2022-08-24T20:13:02.040Z,13.43
2022-08-24T20:15:30.966Z,13.97
2022-08-24T20:18:00.388Z,14.40
2022-08-24T20:20:32.166Z,15.33
2022-08-24T20:23:06.391Z,16.30
2022-08-24T20:25:36.476Z,15.20
2022-08-24T20:30:58.166Z,14.47
2022-08-24T20:33:28.147Z,14.33
2022-08-24T20:35:58.756Z,14.50
2022-08-24T20:38:31.630Z,15.10
2022-08-24T20:41:01.562Z,14.30
2022-08-24T20:43:30.764Z,14.40
2022-08-24T20:45:59.656Z,14.40
2022-08-24T20:48:31.427Z,14.03
2022-08-24T20:51:01.866Z,13.60
2022-08-24T20:53:30.775Z,13.80
2022-08-24T20:56:02.915Z,13.90
2022-08-24T20:58:31.827Z,13.57
2022-08-24T21:01:00.756Z,13.40
2022-08-24T21:03:31.089Z,14.10
2022-08-24T21:06:01.465Z,14.23
2022-08-24T21:08:30.437Z,14.60
2022-08-24T21:10:59.327Z,14.70
2022-08-24T21:13:28.486Z,14.23
2022-08-24T21:15:57.664Z,14.33
2022-08-24T21:18:26.547Z,14.07
2022-08-24T21:21:03.525Z,14.97
2022-08-24T21:23:36.185Z,14.43
2022-08-24T21:26:07.765Z,15.40
2022-08-24T21:28:37.430Z,14.80
2022-08-24T21:31:06.617Z,14.90
2022-08-24T21:33:52.806Z,14.60
2022-08-24T21:36:23.653Z,13.80
2022-08-24T21:38:55.068Z,14.60
2022-08-24T21:41:24.466Z,15.03
2022-08-24T21:43:53.707Z,14.13
2022-08-24T21:46:26.481Z,14.07
2022-08-24T21:48:55.396Z,14.07
2022-08-24T21:51:24.565Z,13.60
2022-08-24T21:53:59.738Z,13.63
2022-08-24T21:56:32.785Z,13.57
2022-08-24T21:59:02.965Z,13.30
2022-08-24T22:01:32.025Z,14.20
2022-08-24T22:04:00.926Z,14.23
2022-08-24T22:06:31.786Z,13.83
2022-08-24T22:09:03.148Z,13.50
2022-08-24T22:11:32.717Z,13.63
2022-08-24T22:14:02.816Z,15.13
2022-08-24T22:16:31.929Z,14.33
2022-08-24T22:19:04.356Z,13.80
2022-08-24T22:21:36.325Z,13.87
2022-08-24T22:24:07.350Z,13.73
2022-08-24T22:26:37.297Z,13.03
2022-08-24T22:29:07.724Z,12.80
2022-08-24T22:31:38.595Z,12.67
2022-08-24T22:34:10.795Z,12.90
2022-08-24T22:36:40.665Z,13.30
2022-08-24T22:39:12.671Z,12.90
2022-08-24T22:41:42.145Z,13.20
2022-08-24T22:44:23.036Z,13.63
2022-08-24T22:46:54.477Z,13.40
2022-08-24T22:49:26.965Z,13.10
2022-08-24T22:51:56.044Z,13.30
2022-08-24T22:54:27.374Z,13.27
2022-08-24T22:56:58.085Z,13.23
2022-08-24T22:59:29.965Z,13.43
2022-08-24T23:01:59.814Z,12.43
2022-08-24T23:04:32.184Z,12.53
2022-08-24T23:07:02.467Z,13.43
2022-08-24T23:09:44.582Z,13.37
2022-08-24T23:12:16.407Z,13.37
2022-08-24T23:14:45.591Z,13.57
2022-08-24T23:17:14.955Z,13.20
2022-08-24T23:20:01.410Z,14.03
2022-08-24T23:22:33.002Z,15.00
2022-08-24T23:25:04.128Z,13.40
2022-08-24T23:27:37.964Z,14.33
2022-08-24T23:30:10.616Z,14.00
2022-08-24T23:32:39.896Z,14.80
2022-08-24T23:35:09.819Z,17.10
2022-08-24T23:37:38.786Z,15.57
2022-08-24T23:40:10.194Z,15.30
2022-08-24T23:42:39.076Z,13.87
2022-08-24T23:45:11.167Z,13.67
2022-08-24T23:47:41.537Z,15.40
2022-08-24T23:50:11.541Z,15.07
2022-08-24T23:52:41.848Z,13.80
2022-08-24T23:55:21.582Z,14.03
2022-08-24T23:57:52.398Z,13.70
